Date,TemperatureHighF,TemperatureAvgF,TemperatureLowF,DewpointHighF,DewpointAvgF,DewpointLowF,HumidityHigh,HumidityAvg,HumidityLow,PressureMaxIn,PressureMinIn,WindSpeedMaxMPH,WindSpeedAvgMPH,GustSpeedMaxMPH,PrecipitationSumIn
2013-12-1,54.7,48.4,44.0,41.1,36.3,29.9,83,64,51,30.19,29.91,3,1,7,0.00
2013-12-2,59.2,50.4,44.0,49.3,44.7,39.6,96,81,67,29.91,29.70,4,1,8,0.00
2013-12-3,63.6,53.6,46.7,53.6,50.1,45.3,98,89,65,29.76,29.68,4,1,8,0.00
2013-12-4,73.2,64.9,53.1,62.1,59.4,52.3,98,83,63,29.78,29.63,6,3,16,0.00
2013-12-5,67.9,43.4,30.4,63.9,40.2,28.4,95,89,78,30.19,29.76,9,4,17,0.25
2013-12-6,30.7,26.4,22.5,29.2,24.5,20.0,94,92,90,30.48,30.10,5,3,14,0.03
2013-12-7,25.4,21.2,16.5,21.5,17.8,12.7,91,87,82,30.64,30.38,5,3,13,0.00
2013-12-8,32.5,29.7,22.7,31.7,28.5,20.5,97,95,91,30.38,30.03,5,2,11,0.01
2013-12-9,31.2,28.6,25.4,30.2,25.6,18.9,96,88,74,30.30,30.12,8,2,14,0.00
2013-12-10,33.6,27.0,21.5,26.1,22.5,18.8,92,83,70,30.41,30.26,7,2,14,0.02
2013-12-11,38.5,28.1,18.4,31.2,23.2,15.2,96,82,68,30.62,30.38,11,3,18,0.11
2013-12-12,33.5,23.1,12.4,19.6,15.4,9.9,90,73,49,30.64,30.39,4,1,7,0.00
2013-12-13,41.4,32.2,19.9,33.9,24.3,15.9,93,73,53,30.39,29.97,3,1,10,0.33
2013-12-14,40.7,36.4,32.2,40.0,34.7,29.6,98,94,89,30.09,29.77,11,5,18,0.89
2013-12-15,32.2,30.8,29.3,29.9,27.6,25.5,93,88,84,30.24,30.09,10,4,19,0.00
2013-12-16,53.0,41.9,31.1,39.9,35.1,28.7,92,77,55,30.16,30.05,7,2,15,0.00
2013-12-17,45.8,37.7,29.4,37.6,31.9,25.1,93,80,57,30.30,30.08,8,3,14,0.00
2013-12-18,51.7,38.3,22.4,32.2,25.9,20.5,95,65,34,30.35,30.09,4,2,10,0.00
2013-12-19,61.2,52.2,41.6,49.8,43.1,32.1,81,71,56,30.12,29.92,6,3,18,0.00
2013-12-20,63.7,60.4,56.1,61.1,56.4,49.5,95,87,73,29.93,29.80,5,4,13,0.18
2013-12-21,71.0,63.2,46.8,64.3,60.6,46.0,97,91,78,29.80,29.42,19,4,33,3.66
2013-12-22,50.7,43.6,34.6,48.1,41.8,31.7,98,93,85,30.20,29.60,10,5,16,0.02
2013-12-23,34.7,31.0,26.1,32.2,26.3,21.5,91,83,72,30.50,30.20,9,4,15,0.00
2013-12-24,26.4,22.4,16.4,21.9,14.8,8.7,87,73,54,30.64,30.44,10,3,15,0.00
2013-12-25,21.3,21.0,20.7,15.8,15.6,15.3,81,79,78,30.44,30.43,2,2,3,0.00